Alanson, MI

4:34 PM EST on December 11, 2019 (GMT -0500)
Alanson | | Change Station
Active Advisory: Winter Storm Warning

Elev 597 ft 45.42 °N, 84.79 °W | Updated 3 minutes ago

Snow
Snow
14 °F
Feels Like 14 °F
N
0
Wind Variable Wind from West
Gusts 9.0 mph

Today
High -- | Low -- °F
--% Chance of Precip.
Yesterday
High -- | Low -- °F
Precip. -- in
Pressure 30.30 in
Visibility 2.0 miles
Clouds Scattered Clouds 1400 ft
Mostly Cloudy 2000 ft
Overcast 2500 ft
Windchill 14 °F
Dew Point 11 °F
Humidity 89%
Rainfall 0.00 in
Snow Depth Not available.
8:08 AM 4:55 PM
Full, 100% visible
METAR KMGN 112116Z AUTO 27009G20KT 2SM -SN SCT014 BKN020 OVC025 M09/M13 A3030 RMK AO2 T10921130
Pressure 30.30 in
Visibility 2.0 miles
Clouds Scattered Clouds 1400 ft
Mostly Cloudy 2000 ft
Overcast 2500 ft
Windchill 14 °F
Dew Point 11 °F
Humidity 89%
Rainfall 0.00 in
Snow Depth Not available.
8:08 AM 4:55 PM
Full, 100% visible
METAR KMGN 112116Z AUTO 27009G20KT 2SM -SN SCT014 BKN020 OVC025 M09/M13 A3030 RMK AO2 T10921130

Get Your Daily Forecast Email!

Thanks for signing up!

Be on the lookout for a verification email in your inbox.

You'll start receiving severe weather alerts in your inbox..

×

10-Day Weather Forecast

Almanac

Astronomy

Dec. 11, 2019 Rise Set
Actual Time
Civil Twilight
Nautical Twilight
Astronomical Twilight
Moon
Length of Visible Light
Length of Day
Tomorrow will be .
, % of the Moon is Illuminated

Today's Extremes

State Highs State Lows

Community

WunderPhotos

Category 6

Welcome to Category 6. This is the collective home for Weather Underground's featured writeups by Dr. Jeff Masters (right), Bob Henson (left), Chris Burt, and other regular contributors.

Nearby

Air Quality

  Air Quality AQ Index Pollutant
Not available.

Snow Depth

Station Depth Elevation

Earthquake Activity

City Distance Mag. Time & Date
Minimum magnitude displayed is 2.5.

Coastal Water Temperatures

Place Temperature

Stations

Nearby Weather Stations

Station Location Temp. Windchill Dew Point Humidity Wind Precip. Elev Updated Type
                   

Watches & Warnings

Winter Storm Warning
Issued: 10:17 AM EST Dec. 11, 2019 – National Weather Service

... Winter Storm Warning now in effect until 7 PM EST this
evening...

* what... lake effect snow. Additional snow accumulations of 1 to 2
inches, with locally higher amounts possible.

* Where... Cheboygan and Emmet counties.

* When... until 7 PM EST this evening.

* Impacts... plan on slippery Road conditions. Snow and blowing
snow will significantly reduce visibility at times. The
hazardous conditions will impact the evening commute.

Precautionary/preparedness actions...

If you must travel, keep an extra flashlight, food, and water in
your vehicle in case of an emergency.